< < Back
Terminal Aerodrome Forecast


Current Version              Previous Versions:   1  2  3  4  5  6  7  8  9  

Terminal Aerodrome Forecast

331
FTAK31 PAJN 290520
TAFAHN
TAF
PAHN 290520Z 2906/3006 VRB03KT P6SM FEW100
     FM292100 13006KT P6SM BKN100
      AMD LTD TO CLD VIS AND WIND=

Latest METAR

424
SAUS70 KWBC 290654
MTRAHN
METAR KAHN 290651Z AUTO 00000KT 10SM FEW070 20/18 A3011 RMK AO2 SLP188
T02000183


USA.gov is the U.S. government's official web portal to all federal, state and local government web resources and services.